Time;durP1;ratioP1;P1;durP2;ratioP2;P2;SDS_P1;SDS_P2;PMS_P1;PMS_P2;Temp;Humidity;BMP_temperature;BMP_pressure;BME280_temperature;BME280_humidity;BME280_pressure;Samples;Min_cycle;Max_cycle;Signal;HPM_P1;HPM_P2
2022/04/16 00:01:04;;;;;;;5.00;3.50;;;;;;;;;;5031935;28;20694;-85
2022/04/16 00:03:33;;;;;;;4.03;3.63;;;;;;;;;;5032535;28;20253;-84
2022/04/16 00:06:01;;;;;;;4.43;4.03;;;;;;;;;;5031995;28;20238;-84
2022/04/16 00:08:29;;;;;;;4.33;3.73;;;;;;;;;;5032178;28;20226;-84
2022/04/16 00:10:57;;;;;;;6.57;3.90;;;;;;;;;;5032002;28;20245;-84
2022/04/16 00:13:26;;;;;;;4.03;3.73;;;;;;;;;;5032368;28;20219;-84
2022/04/16 00:15:53;;;;;;;4.27;3.87;;;;;;;;;;5035795;28;20245;-84
2022/04/16 00:18:21;;;;;;;4.43;4.03;;;;;;;;;;5035966;28;20230;-85
2022/04/16 00:20:49;;;;;;;4.20;3.90;;;;;;;;;;5035587;28;20717;-84
2022/04/16 00:23:19;;;;;;;4.77;4.37;;;;;;;;;;5036326;28;20211;-83
2022/04/16 00:25:46;;;;;;;5.03;4.20;;;;;;;;;;5035531;28;20313;-85
2022/04/16 00:28:13;;;;;;;3.97;3.67;;;;;;;;;;5036150;28;20226;-84
2022/04/16 00:30:41;;;;;;;4.50;3.80;;;;;;;;;;5035430;28;20238;-84
2022/04/16 00:33:10;;;;;;;4.30;3.90;;;;;;;;;;5035750;28;20227;-83
2022/04/16 00:35:37;;;;;;;4.57;3.97;;;;;;;;;;5035392;28;20281;-84
2022/04/16 00:38:04;;;;;;;4.17;3.77;;;;;;;;;;5035580;28;20295;-84
2022/04/16 00:40:31;;;;;;;4.33;3.93;;;;;;;;;;5034889;28;20239;-83
2022/04/16 00:42:59;;;;;;;5.30;4.00;;;;;;;;;;5035891;28;20214;-83
2022/04/16 00:45:26;;;;;;;4.37;3.97;;;;;;;;;;5034961;28;20231;-84
2022/04/16 00:47:55;;;;;;;4.40;4.00;;;;;;;;;;5035381;28;20242;-83
2022/04/16 00:50:22;;;;;;;4.60;4.20;;;;;;;;;;5034973;28;20235;-83
2022/04/16 00:52:50;;;;;;;5.23;4.33;;;;;;;;;;5035718;28;20230;-83
2022/04/16 00:55:17;;;;;;;4.40;4.00;;;;;;;;;;5035038;28;20234;-83
2022/04/16 00:57:44;;;;;;;4.43;4.03;;;;;;;;;;5035177;28;20234;-83
2022/04/16 01:00:13;;;;;;;4.57;4.17;;;;;;;;;;5034641;28;20226;-83
2022/04/16 01:02:41;;;;;;;5.43;4.67;;;;;;;;;;5035485;28;20348;-83
2022/04/16 01:05:12;;;;;;;4.70;4.30;;;;;;;;;;5034014;28;20230;-83
2022/04/16 01:07:52;;;;;;;6.23;3.87;;;;;;;;;;5031672;28;20234;-83
2022/04/16 01:10:20;;;;;;;6.70;4.23;;;;;;;;;;5017443;28;20238;-84
2022/04/16 01:12:47;;;;;;;4.43;4.03;;;;;;;;;;5014937;28;20699;-83
2022/04/16 01:15:14;;;;;;;4.67;4.17;;;;;;;;;;5014886;28;20239;-83
2022/04/16 01:17:41;;;;;;;4.77;4.27;;;;;;;;;;5015269;28;20271;-83
2022/04/16 01:20:10;;;;;;;4.97;4.47;;;;;;;;;;5014362;28;20875;-82
2022/04/16 01:22:40;;;;;;;4.80;4.40;;;;;;;;;;5016316;28;20566;-83
2022/04/16 01:25:08;;;;;;;4.23;3.80;;;;;;;;;;5016318;28;20812;-83
2022/04/16 01:27:35;;;;;;;5.67;4.50;;;;;;;;;;5034907;28;20250;-83
2022/04/16 01:30:03;;;;;;;4.80;4.30;;;;;;;;;;5034197;28;20258;-83
2022/04/16 01:32:32;;;;;;;4.83;3.90;;;;;;;;;;5034765;28;20258;-84
2022/04/16 01:35:00;;;;;;;4.97;4.40;;;;;;;;;;5034122;28;20292;-83
2022/04/16 01:37:31;;;;;;;6.13;4.30;;;;;;;;;;5034877;28;20234;-84
2022/04/16 01:40:00;;;;;;;4.50;4.10;;;;;;;;;;5034024;28;20767;-84
2022/04/16 01:42:29;;;;;;;4.50;4.10;;;;;;;;;;5034888;28;20577;-84
2022/04/16 01:44:58;;;;;;;5.10;4.60;;;;;;;;;;5034844;28;20305;-83
2022/04/16 01:47:25;;;;;;;5.73;4.37;;;;;;;;;;5035062;28;20230;-83
2022/04/16 01:49:52;;;;;;;5.50;4.53;;;;;;;;;;5033962;28;20599;-83
2022/04/16 01:52:21;;;;;;;4.83;4.37;;;;;;;;;;5035831;28;20233;-83
2022/04/16 01:54:49;;;;;;;4.40;4.00;;;;;;;;;;5041503;28;20234;-83
2022/04/16 01:57:18;;;;;;;5.20;4.70;;;;;;;;;;5039219;28;20210;-83
2022/04/16 01:59:45;;;;;;;7.30;4.20;;;;;;;;;;5034824;28;20234;-83
2022/04/16 02:02:12;;;;;;;4.90;4.40;;;;;;;;;;5036092;28;20203;-84
2022/04/16 02:04:39;;;;;;;5.57;4.47;;;;;;;;;;5034462;28;20210;-83
2022/04/16 02:07:07;;;;;;;6.43;4.50;;;;;;;;;;5034960;28;20211;-84
2022/04/16 02:09:34;;;;;;;5.50;4.30;;;;;;;;;;5035591;28;20696;-84
2022/04/16 02:12:01;;;;;;;4.83;4.33;;;;;;;;;;5036542;28;20654;-85
2022/04/16 02:14:30;;;;;;;4.93;4.43;;;;;;;;;;5034851;28;20692;-85
2022/04/16 02:16:57;;;;;;;6.03;5.13;;;;;;;;;;5036495;28;20593;-85
2022/04/16 02:19:24;;;;;;;4.90;4.50;;;;;;;;;;5034177;28;20233;-84
2022/04/16 02:21:51;;;;;;;4.97;4.47;;;;;;;;;;5034728;28;20230;-84
2022/04/16 02:24:19;;;;;;;4.63;4.23;;;;;;;;;;5034148;28;20213;-84
2022/04/16 02:26:46;;;;;;;5.30;4.87;;;;;;;;;;5033737;28;20218;-85
2022/04/16 02:29:13;;;;;;;5.33;4.77;;;;;;;;;;5033660;28;20602;-84
2022/04/16 02:31:44;;;;;;;5.90;4.70;;;;;;;;;;5033272;28;20245;-84
2022/04/16 02:34:11;;;;;;;8.20;4.73;;;;;;;;;;5033658;28;20694;-84
2022/04/16 02:36:40;;;;;;;5.30;4.80;;;;;;;;;;5032917;28;20245;-85
2022/04/16 02:39:08;;;;;;;5.03;4.53;;;;;;;;;;5033672;28;20249;-85
2022/04/16 02:41:35;;;;;;;5.73;5.13;;;;;;;;;;5033141;28;20235;-84
2022/04/16 02:44:02;;;;;;;4.90;4.50;;;;;;;;;;5033803;28;20261;-85
2022/04/16 02:49:16;;;;;;;5.23;4.73;;;;;;;;;;5033184;28;20306;-85
2022/04/16 02:51:43;;;;;;;6.20;4.20;;;;;;;;;;5032883;28;20234;-84
2022/04/16 02:54:11;;;;;;;4.80;4.40;;;;;;;;;;5033227;28;20258;-84
2022/04/16 02:56:38;;;;;;;5.23;4.73;;;;;;;;;;5032763;28;20226;-85
2022/04/16 02:59:05;;;;;;;5.47;4.83;;;;;;;;;;5033278;28;20313;-85
2022/04/16 03:01:32;;;;;;;6.50;4.97;;;;;;;;;;5032737;28;20330;-84
2022/04/16 03:03:59;;;;;;;5.53;4.93;;;;;;;;;;5033269;28;20206;-85
2022/04/16 03:06:27;;;;;;;5.17;4.73;;;;;;;;;;5032651;28;20246;-85
2022/04/16 03:08:54;;;;;;;5.77;5.17;;;;;;;;;;5032960;28;20241;-85
2022/04/16 03:11:21;;;;;;;5.40;4.90;;;;;;;;;;5033402;28;20235;-84
2022/04/16 03:13:48;;;;;;;5.63;4.97;;;;;;;;;;5033244;28;20233;-84
2022/04/16 03:19:00;;;;;;;5.80;5.30;;;;;;;;;;5032730;28;20304;-85
2022/04/16 03:21:29;;;;;;;5.53;5.03;;;;;;;;;;5032830;28;20238;-84
2022/04/16 03:23:56;;;;;;;7.53;4.97;;;;;;;;;;5032707;28;20245;-84
2022/04/16 03:26:23;;;;;;;5.90;5.00;;;;;;;;;;5032816;28;20234;-84
2022/04/16 03:28:50;;;;;;;5.70;5.20;;;;;;;;;;5033065;28;20265;-85
2022/04/16 03:31:17;;;;;;;5.57;5.07;;;;;;;;;;5032287;28;20722;-85
2022/04/16 03:33:44;;;;;;;5.73;5.23;;;;;;;;;;5032595;28;20280;-85
2022/04/16 03:36:11;;;;;;;8.00;6.13;;;;;;;;;;5032310;28;20250;-85
2022/04/16 03:38:40;;;;;;;7.73;5.53;;;;;;;;;;5032589;28;20237;-85
2022/04/16 03:41:07;;;;;;;6.10;5.50;;;;;;;;;;5032373;28;20265;-84
2022/04/16 03:43:34;;;;;;;7.00;6.30;;;;;;;;;;5033113;28;20210;-85
2022/04/16 03:46:01;;;;;;;6.57;5.70;;;;;;;;;;5032264;28;20623;-86
2022/04/16 03:48:28;;;;;;;5.97;5.30;;;;;;;;;;5032296;28;20230;-86
2022/04/16 03:50:55;;;;;;;8.07;5.37;;;;;;;;;;5033328;28;20233;-85
2022/04/16 03:53:22;;;;;;;6.90;6.13;;;;;;;;;;5033105;28;20233;-85
2022/04/16 04:01:20;;;;;;;6.00;4.90;;;;;;;;;;5032453;28;20261;-85
2022/04/16 04:03:48;;;;;;;5.60;5.10;;;;;;;;;;5032637;28;20207;-84
2022/04/16 04:06:15;;;;;;;5.97;5.37;;;;;;;;;;5032035;28;20285;-85
2022/04/16 04:08:42;;;;;;;5.87;5.10;;;;;;;;;;5032475;28;20223;-84
2022/04/16 04:11:10;;;;;;;5.60;4.97;;;;;;;;;;5031979;28;20241;-84
2022/04/16 04:13:37;;;;;;;5.83;5.23;;;;;;;;;;5032414;28;20586;-85
2022/04/16 04:16:05;;;;;;;5.67;5.07;;;;;;;;;;5031889;28;20604;-85
2022/04/16 04:18:32;;;;;;;7.27;5.33;;;;;;;;;;5032405;28;20215;-84
2022/04/16 04:20:59;;;;;;;5.63;5.13;;;;;;;;;;5032018;28;20238;-84
2022/04/16 04:23:26;;;;;;;5.67;5.17;;;;;;;;;;5032528;28;20209;-84
2022/04/16 04:25:54;;;;;;;6.10;4.77;;;;;;;;;;5031841;28;20231;-85
2022/04/16 04:28:22;;;;;;;6.43;5.63;;;;;;;;;;5032091;28;20239;-85
2022/04/16 04:30:49;;;;;;;8.37;5.23;;;;;;;;;;5031786;28;20296;-84
2022/04/16 04:33:16;;;;;;;5.97;4.87;;;;;;;;;;5032215;28;20227;-84
2022/04/16 04:35:43;;;;;;;6.07;5.30;;;;;;;;;;5033777;28;20239;-85
2022/04/16 04:38:10;;;;;;;6.70;5.73;;;;;;;;;;5032419;28;20581;-83
2022/04/16 04:40:39;;;;;;;7.33;5.47;;;;;;;;;;5031434;28;20238;-82
2022/04/16 04:43:06;;;;;;;5.70;5.20;;;;;;;;;;5032314;28;20207;-83
2022/04/16 04:45:34;;;;;;;10.00;5.80;;;;;;;;;;5031527;28;20230;-82
2022/04/16 04:48:01;;;;;;;6.13;5.53;;;;;;;;;;5057645;22;20230;-87
2022/04/16 04:50:28;;;;;;;6.60;5.90;;;;;;;;;;5068588;28;20225;-88
2022/04/16 04:52:55;;;;;;;5.50;5.00;;;;;;;;;;5071369;28;20233;-88
2022/04/16 04:55:22;;;;;;;7.03;6.00;;;;;;;;;;5071252;28;20240;-88
2022/04/16 04:57:54;;;;;;;5.80;5.30;;;;;;;;;;5071543;28;20201;-87
2022/04/16 05:00:21;;;;;;;6.83;5.83;;;;;;;;;;5050656;28;20237;-88
2022/04/16 05:02:50;;;;;;;7.60;5.90;;;;;;;;;;5040165;28;20199;-88
2022/04/16 05:05:17;;;;;;;6.90;5.80;;;;;;;;;;5034523;28;20781;-87
2022/04/16 05:07:45;;;;;;;6.57;5.90;;;;;;;;;;5040382;28;20199;-87
2022/04/16 05:10:12;;;;;;;6.17;5.60;;;;;;;;;;5056615;28;20230;-87
2022/04/16 05:12:39;;;;;;;7.67;5.87;;;;;;;;;;5056768;28;20211;-86
2022/04/16 05:15:07;;;;;;;10.97;6.30;;;;;;;;;;5052114;28;20234;-88
2022/04/16 05:17:37;;;;;;;7.10;5.90;;;;;;;;;;5035341;28;20207;-87
2022/04/16 05:20:06;;;;;;;7.53;6.40;;;;;;;;;;5034586;28;20296;-87
2022/04/16 05:22:33;;;;;;;8.40;5.87;;;;;;;;;;5034776;28;20217;-87
2022/04/16 05:25:00;;;;;;;7.13;5.30;;;;;;;;;;5033903;28;20230;-87
2022/04/16 05:27:30;;;;;;;8.00;6.33;;;;;;;;;;5034168;28;20202;-87
2022/04/16 05:30:11;;;;;;;7.07;6.33;;;;;;;;;;5033851;28;20236;-85
2022/04/16 05:32:39;;;;;;;7.37;6.07;;;;;;;;;;5034480;28;20947;-85
2022/04/16 05:35:09;;;;;;;9.27;6.33;;;;;;;;;;5033603;28;20260;-86
2022/04/16 05:37:36;;;;;;;9.33;6.13;;;;;;;;;;5034162;28;20240;-87
2022/04/16 05:40:04;;;;;;;6.47;5.87;;;;;;;;;;5033847;28;20238;-87
2022/04/16 05:42:31;;;;;;;8.23;6.10;;;;;;;;;;5034234;28;20690;-87
2022/04/16 05:45:01;;;;;;;9.60;6.80;;;;;;;;;;5033615;28;20332;-87
2022/04/16 05:47:29;;;;;;;7.97;5.80;;;;;;;;;;5033955;28;20246;-87
2022/04/16 05:49:56;;;;;;;5.07;4.63;;;;;;;;;;5033294;28;20252;-87
2022/04/16 05:52:24;;;;;;;6.10;5.50;;;;;;;;;;5034515;28;20207;-87
2022/04/16 05:54:52;;;;;;;5.40;4.90;;;;;;;;;;5033777;28;20595;-87
2022/04/16 05:57:19;;;;;;;5.47;4.90;;;;;;;;;;5034155;28;20580;-87
2022/04/16 05:59:47;;;;;;;5.83;5.30;;;;;;;;;;5033465;28;20715;-86
2022/04/16 06:02:14;;;;;;;10.83;5.87;;;;;;;;;;5033895;28;20211;-87
2022/04/16 06:04:41;;;;;;;6.50;5.20;;;;;;;;;;5033668;28;20325;-87
2022/04/16 06:07:08;;;;;;;7.97;5.10;;;;;;;;;;5033775;28;20214;-88
2022/04/16 06:09:36;;;;;;;6.07;4.83;;;;;;;;;;5034438;28;20238;-86
2022/04/16 06:12:04;;;;;;;5.20;4.70;;;;;;;;;;5033726;28;20541;-87
2022/04/16 06:14:31;;;;;;;6.90;4.73;;;;;;;;;;5031835;28;20226;-86
2022/04/16 06:16:59;;;;;;;7.00;5.77;;;;;;;;;;5039053;28;20198;-82
2022/04/16 06:19:26;;;;;;;7.50;5.77;;;;;;;;;;5051697;28;20301;-82
2022/04/16 06:21:53;;;;;;;9.33;5.17;;;;;;;;;;5052414;28;20281;-83
2022/04/16 06:24:20;;;;;;;6.20;5.03;;;;;;;;;;5052863;28;20584;-81
2022/04/16 06:26:48;;;;;;;5.77;5.17;;;;;;;;;;5051923;28;20238;-83
2022/04/16 06:29:16;;;;;;;6.10;5.50;;;;;;;;;;5053398;28;20234;-83
2022/04/16 06:31:43;;;;;;;6.40;4.80;;;;;;;;;;5052208;28;20237;-85
2022/04/16 06:34:10;;;;;;;7.17;5.63;;;;;;;;;;5052585;28;20636;-85
2022/04/16 06:36:38;;;;;;;7.50;5.83;;;;;;;;;;5051872;28;20238;-83
2022/04/16 06:39:05;;;;;;;7.00;5.57;;;;;;;;;;5052064;28;20261;-85
2022/04/16 06:41:32;;;;;;;5.40;4.80;;;;;;;;;;5051979;28;20728;-84
2022/04/16 06:44:02;;;;;;;7.10;5.27;;;;;;;;;;5052550;28;20206;-85
2022/04/16 06:46:30;;;;;;;6.07;5.43;;;;;;;;;;5051406;28;20264;-84
2022/04/16 06:48:57;;;;;;;7.10;6.00;;;;;;;;;;5052541;28;20273;-85
2022/04/16 06:51:24;;;;;;;6.93;5.07;;;;;;;;;;5052790;28;20313;-83
2022/04/16 06:53:51;;;;;;;6.00;5.10;;;;;;;;;;5055487;28;20229;-85
2022/04/16 06:56:18;;;;;;;8.17;5.10;;;;;;;;;;5051728;28;20617;-85
2022/04/16 06:58:46;;;;;;;5.93;5.03;;;;;;;;;;5052173;28;20607;-85
2022/04/16 07:01:14;;;;;;;6.40;5.73;;;;;;;;;;5050083;28;20256;-85
2022/04/16 07:03:41;;;;;;;5.93;5.20;;;;;;;;;;5032048;28;20203;-85
2022/04/16 07:06:09;;;;;;;6.63;5.50;;;;;;;;;;5031571;28;20234;-85
2022/04/16 07:08:36;;;;;;;5.80;5.20;;;;;;;;;;5032235;28;20221;-85
2022/04/16 07:11:03;;;;;;;6.37;5.07;;;;;;;;;;5045497;28;20252;-83
2022/04/16 07:13:30;;;;;;;5.73;5.03;;;;;;;;;;5051668;28;20206;-83
2022/04/16 07:15:58;;;;;;;6.07;4.97;;;;;;;;;;5049949;28;20240;-85
2022/04/16 07:18:26;;;;;;;9.23;4.17;;;;;;;;;;5034510;28;20233;-85
2022/04/16 07:20:53;;;;;;;5.03;4.40;;;;;;;;;;5031812;28;20238;-84
2022/04/16 07:23:21;;;;;;;4.97;4.47;;;;;;;;;;5032140;28;20214;-85
2022/04/16 07:25:48;;;;;;;5.33;4.83;;;;;;;;;;5031284;28;20226;-84
2022/04/16 07:28:21;;;;;;;5.87;4.47;;;;;;;;;;5032540;28;20725;-86
2022/04/16 07:30:48;;;;;;;5.43;4.47;;;;;;;;;;5030460;28;20230;-85
2022/04/16 07:33:15;;;;;;;5.93;4.50;;;;;;;;;;5047799;28;20221;-85
2022/04/16 07:35:44;;;;;;;5.37;4.80;;;;;;;;;;5046887;28;20296;-85
2022/04/16 07:38:11;;;;;;;4.90;4.40;;;;;;;;;;5043002;28;20198;-86
2022/04/16 07:40:38;;;;;;;4.40;3.70;;;;;;;;;;5045828;28;20601;-83
2022/04/16 07:43:06;;;;;;;5.60;3.77;;;;;;;;;;5052139;28;20194;-84
2022/04/16 07:45:35;;;;;;;4.80;4.10;;;;;;;;;;5051105;28;20225;-83
2022/04/16 07:48:02;;;;;;;4.83;4.10;;;;;;;;;;5052356;28;20259;-83
2022/04/16 07:50:29;;;;;;;3.33;3.03;;;;;;;;;;5051425;28;20240;-84
2022/04/16 07:52:58;;;;;;;5.47;4.43;;;;;;;;;;5052425;28;20190;-84
2022/04/16 07:55:27;;;;;;;4.37;3.97;;;;;;;;;;5051495;28;20241;-84
2022/04/16 07:57:55;;;;;;;4.07;3.53;;;;;;;;;;5052359;28;20241;-83
2022/04/16 08:00:22;;;;;;;3.90;3.60;;;;;;;;;;5051750;28;20252;-83
2022/04/16 08:02:49;;;;;;;4.43;3.50;;;;;;;;;;5052332;28;20229;-83
2022/04/16 08:05:16;;;;;;;4.30;3.90;;;;;;;;;;5053780;28;20229;-84
2022/04/16 08:07:44;;;;;;;3.83;3.43;;;;;;;;;;5052108;28;20217;-85
2022/04/16 08:10:12;;;;;;;4.13;3.63;;;;;;;;;;5051453;28;20238;-83
2022/04/16 08:12:40;;;;;;;3.63;3.33;;;;;;;;;;5052313;28;20214;-82
2022/04/16 08:15:09;;;;;;;3.87;3.50;;;;;;;;;;5040488;28;20483;-84
2022/04/16 08:17:37;;;;;;;4.07;3.53;;;;;;;;;;5030336;28;20305;-84
2022/04/16 08:20:04;;;;;;;3.83;3.10;;;;;;;;;;5051164;28;20234;-83
2022/04/16 08:22:34;;;;;;;4.30;3.53;;;;;;;;;;5052629;28;20202;-86
2022/04/16 08:27:45;;;;;;;4.97;3.40;;;;;;;;;;5060754;28;20301;-84
2022/04/16 08:30:13;;;;;;;3.67;3.00;;;;;;;;;;5052965;28;20233;-84
2022/04/16 08:32:41;;;;;;;2.33;2.20;;;;;;;;;;5052770;28;20693;-84
2022/04/16 08:35:09;;;;;;;3.50;2.40;;;;;;;;;;5053080;28;20268;-84
2022/04/16 08:37:36;;;;;;;3.77;2.50;;;;;;;;;;5055779;28;20209;-84
2022/04/16 08:40:03;;;;;;;4.57;2.60;;;;;;;;;;5055350;28;20237;-84
2022/04/16 08:42:31;;;;;;;2.70;2.50;;;;;;;;;;5055439;28;20209;-83
2022/04/16 08:44:59;;;;;;;2.77;2.57;;;;;;;;;;5055092;28;20233;-83
2022/04/16 08:47:26;;;;;;;2.47;2.27;;;;;;;;;;5055240;28;20214;-84
2022/04/16 08:49:53;;;;;;;3.93;2.30;;;;;;;;;;5051145;28;20240;-84
2022/04/16 08:52:22;;;;;;;2.60;2.40;;;;;;;;;;5055068;28;20276;-85
2022/04/16 08:54:49;;;;;;;3.37;2.27;;;;;;;;;;5053440;28;20238;-84
2022/04/16 08:57:16;;;;;;;3.07;2.60;;;;;;;;;;5053975;28;20198;-84
2022/04/16 08:59:50;;;;;;;2.83;2.33;;;;;;;;;;5053641;28;20248;-85
2022/04/16 09:02:19;;;;;;;2.80;2.60;;;;;;;;;;5054720;28;20630;-84
2022/04/16 09:04:46;;;;;;;2.40;2.20;;;;;;;;;;5054777;28;20226;-84
2022/04/16 09:07:13;;;;;;;3.17;2.40;;;;;;;;;;5055088;28;20848;-84
2022/04/16 09:09:40;;;;;;;2.83;2.37;;;;;;;;;;5053607;28;20229;-85
2022/04/16 09:12:15;;;;;;;2.53;2.33;;;;;;;;;;5055574;28;20221;-85
2022/04/16 09:14:45;;;;;;;2.50;2.30;;;;;;;;;;5053468;28;20233;-85
2022/04/16 09:17:16;;;;;;;2.10;1.90;;;;;;;;;;5054667;28;20206;-85
2022/04/16 09:19:44;;;;;;;2.40;2.20;;;;;;;;;;5053932;28;20598;-86
2022/04/16 09:22:11;;;;;;;2.20;2.00;;;;;;;;;;5054611;28;20568;-85
2022/04/16 09:24:47;;;;;;;1.90;1.80;;;;;;;;;;5054455;28;20246;-84
2022/04/16 09:27:14;;;;;;;2.07;1.97;;;;;;;;;;5069717;28;20194;-84
2022/04/16 09:29:43;;;;;;;2.10;2.00;;;;;;;;;;5075013;28;20252;-85
2022/04/16 09:32:10;;;;;;;2.33;2.13;;;;;;;;;;5076584;28;20206;-84
2022/04/16 09:34:37;;;;;;;1.63;1.53;;;;;;;;;;5060808;28;20229;-85
2022/04/16 09:37:14;;;;;;;1.70;1.60;;;;;;;;;;5035884;28;20213;-83
2022/04/16 09:39:41;;;;;;;1.40;1.37;;;;;;;;;;5033807;28;20694;-84
2022/04/16 09:42:08;;;;;;;1.70;1.53;;;;;;;;;;5053822;28;20677;-84
2022/04/16 09:44:35;;;;;;;1.70;1.60;;;;;;;;;;5053903;28;20213;-84
2022/04/16 09:47:04;;;;;;;1.50;1.40;;;;;;;;;;5053154;28;20214;-84
2022/04/16 09:49:33;;;;;;;1.90;1.70;;;;;;;;;;5053416;28;20237;-84
2022/04/16 09:52:02;;;;;;;1.63;1.52;;;;;;;;;;5054008;28;20554;-84
2022/04/16 09:54:31;;;;;;;1.58;1.48;;;;;;;;;;5053812;28;20254;-84
2022/04/16 09:57:02;;;;;;;1.75;1.65;;;;;;;;;;5054259;28;20210;-83
2022/04/16 09:59:35;;;;;;;3.55;1.60;;;;;;;;;;5054054;28;20222;-84
2022/04/16 10:02:05;;;;;;;1.92;1.75;;;;;;;;;;5054432;28;20209;-85
2022/04/16 10:04:33;;;;;;;1.40;1.30;;;;;;;;;;5058018;28;20202;-85
2022/04/16 10:07:00;;;;;;;1.77;1.65;;;;;;;;;;5054627;28;20226;-86
2022/04/16 10:09:28;;;;;;;1.50;1.40;;;;;;;;;;5053954;28;20238;-86
2022/04/16 10:14:46;;;;;;;2.25;1.50;;;;;;;;;;5049407;28;20414;-85
2022/04/16 10:17:23;;;;;;;1.67;1.50;;;;;;;;;;5047411;28;20209;-85
2022/04/16 10:19:50;;;;;;;1.67;1.58;;;;;;;;;;5032925;28;20237;-85
2022/04/16 10:22:24;;;;;;;1.55;1.45;;;;;;;;;;5033622;28;20206;-85
2022/04/16 10:24:51;;;;;;;10.55;2.78;;;;;;;;;;5033583;28;20233;-85
2022/04/16 10:27:23;;;;;;;1.95;1.75;;;;;;;;;;5038086;28;20206;-84
2022/04/16 10:29:50;;;;;;;1.95;1.75;;;;;;;;;;5052549;28;20234;-85
2022/04/16 10:32:18;;;;;;;1.83;1.73;;;;;;;;;;5053077;28;20654;-86
2022/04/16 10:34:46;;;;;;;2.00;1.50;;;;;;;;;;5052994;28;20245;-85
2022/04/16 10:37:23;;;;;;;1.90;1.70;;;;;;;;;;5053181;28;20210;-85
2022/04/16 10:39:53;;;;;;;1.25;1.20;;;;;;;;;;5052491;28;20700;-86
2022/04/16 10:42:31;;;;;;;1.55;1.42;;;;;;;;;;5053082;28;20209;-87
2022/04/16 10:45:08;;;;;;;1.48;1.38;;;;;;;;;;5052615;28;20582;-86
2022/04/16 10:47:37;;;;;;;2.40;1.45;;;;;;;;;;5053333;28;20182;-85
2022/04/16 10:50:08;;;;;;;1.23;1.17;;;;;;;;;;5052199;28;20229;-85
2022/04/16 10:52:36;;;;;;;1.52;1.42;;;;;;;;;;5053539;28;20190;-86
2022/04/16 10:55:04;;;;;;;1.77;1.50;;;;;;;;;;5052398;28;20244;-85
2022/04/16 10:57:32;;;;;;;1.70;1.50;;;;;;;;;;5054559;28;20278;-85
2022/04/16 11:00:01;;;;;;;1.38;1.27;;;;;;;;;;5053042;28;20238;-86
2022/04/16 11:02:30;;;;;;;1.17;1.15;;;;;;;;;;5053213;28;20284;-86
2022/04/16 11:04:59;;;;;;;1.20;0.95;;;;;;;;;;5055120;28;20248;-86
2022/04/16 11:07:27;;;;;;;2.10;1.40;;;;;;;;;;5054052;28;20765;-87
2022/04/16 11:09:55;;;;;;;1.13;1.10;;;;;;;;;;5053838;28;20287;-86
2022/04/16 11:12:22;;;;;;;1.42;1.20;;;;;;;;;;5055064;28;20240;-87
2022/04/16 11:14:51;;;;;;;4.43;1.38;;;;;;;;;;5053299;28;20592;-87
2022/04/16 11:17:19;;;;;;;1.45;1.35;;;;;;;;;;5055015;28;20210;-89
2022/04/16 11:19:48;;;;;;;1.38;1.27;;;;;;;;;;5055098;28;20245;-89
2022/04/16 11:22:16;;;;;;;1.40;1.30;;;;;;;;;;5056516;28;20202;-88
2022/04/16 11:24:44;;;;;;;1.58;1.48;;;;;;;;;;5041041;28;20241;-88
2022/04/16 11:35:54;;;;;;;1.17;1.08;;;;;;;;;;5051708;28;20249;-86
2022/04/16 11:38:26;;;;;;;2.08;0.95;;;;;;;;;;5052951;28;20225;-87
2022/04/16 11:40:53;;;;;;;2.47;2.08;;;;;;;;;;5056364;28;20279;-86
2022/04/16 11:43:23;;;;;;;2.10;0.98;;;;;;;;;;5057365;28;20241;-86
2022/04/16 11:45:52;;;;;;;2.10;1.15;;;;;;;;;;5051534;28;20250;-84
2022/04/16 11:48:19;;;;;;;1.20;1.10;;;;;;;;;;5053497;28;20234;-86
2022/04/16 11:50:46;;;;;;;1.67;1.20;;;;;;;;;;5053159;28;20241;-86
2022/04/16 11:53:13;;;;;;;1.23;1.13;;;;;;;;;;5057507;28;20306;-88
2022/04/16 11:55:47;;;;;;;2.58;0.95;;;;;;;;;;5051944;28;20234;-86
2022/04/16 11:58:14;;;;;;;1.20;1.15;;;;;;;;;;5052560;28;20206;-86
2022/04/16 12:00:48;;;;;;;1.50;1.30;;;;;;;;;;5051846;28;20721;-84
2022/04/16 12:03:17;;;;;;;1.40;1.20;;;;;;;;;;5053765;28;20201;-84
2022/04/16 12:05:44;;;;;;;1.30;1.20;;;;;;;;;;5052856;28;20590;-85
2022/04/16 12:08:12;;;;;;;1.10;1.00;;;;;;;;;;5053097;28;20220;-85
2022/04/16 12:10:39;;;;;;;0.85;0.85;;;;;;;;;;5054639;28;20252;-85
2022/04/16 12:13:10;;;;;;;1.20;1.10;;;;;;;;;;5057131;28;20613;-86
2022/04/16 12:15:41;;;;;;;0.70;0.70;;;;;;;;;;5056149;28;20288;-85
2022/04/16 12:18:12;;;;;;;1.98;1.10;;;;;;;;;;5057020;28;20229;-86
2022/04/16 12:20:46;;;;;;;1.00;0.98;;;;;;;;;;5056388;28;20237;-85
2022/04/16 12:23:20;;;;;;;0.98;0.88;;;;;;;;;;5056351;28;20584;-85
2022/04/16 12:25:47;;;;;;;1.20;1.00;;;;;;;;;;5056076;28;20238;-85
2022/04/16 12:28:14;;;;;;;0.60;0.60;;;;;;;;;;5056667;28;20229;-86
2022/04/16 12:30:42;;;;;;;1.33;0.85;;;;;;;;;;5055969;28;20301;-85
2022/04/16 12:33:11;;;;;;;0.88;0.88;;;;;;;;;;5057023;28;20214;-85
2022/04/16 12:35:39;;;;;;;1.67;1.02;;;;;;;;;;5055648;28;20632;-86
2022/04/16 12:38:14;;;;;;;1.15;1.05;;;;;;;;;;5056051;28;20751;-87
2022/04/16 12:40:42;;;;;;;1.60;1.10;;;;;;;;;;5055384;28;20240;-84
2022/04/16 12:43:09;;;;;;;1.05;0.95;;;;;;;;;;5055902;28;20229;-84
2022/04/16 12:45:36;;;;;;;1.13;1.02;;;;;;;;;;5055480;28;20240;-84
2022/04/16 12:48:03;;;;;;;0.90;0.90;;;;;;;;;;5055634;28;20209;-84
2022/04/16 12:50:31;;;;;;;2.05;1.00;;;;;;;;;;5055410;28;20233;-84
2022/04/16 12:53:00;;;;;;;1.48;0.80;;;;;;;;;;5055798;28;20442;-84
2022/04/16 12:55:29;;;;;;;1.17;1.08;;;;;;;;;;5055183;28;20234;-85
2022/04/16 12:57:56;;;;;;;1.05;0.90;;;;;;;;;;5055625;28;20237;-84
2022/04/16 13:00:23;;;;;;;1.23;0.95;;;;;;;;;;5055065;28;20233;-85
2022/04/16 13:02:50;;;;;;;1.48;0.90;;;;;;;;;;5055386;28;20209;-85
2022/04/16 13:05:18;;;;;;;1.30;0.65;;;;;;;;;;5055320;28;20237;-84
2022/04/16 13:07:46;;;;;;;0.70;0.70;;;;;;;;;;5055542;28;20202;-84
2022/04/16 13:10:14;;;;;;;0.80;0.80;;;;;;;;;;5054698;28;20312;-85
2022/04/16 13:12:42;;;;;;;1.02;0.70;;;;;;;;;;5055601;28;20850;-83
2022/04/16 13:15:10;;;;;;;3.88;0.77;;;;;;;;;;5054788;28;20233;-85
2022/04/16 13:17:39;;;;;;;0.65;0.65;;;;;;;;;;5055490;28;20210;-84
2022/04/16 13:20:07;;;;;;;1.73;0.77;;;;;;;;;;5054595;28;20637;-84
2022/04/16 13:22:34;;;;;;;1.08;0.85;;;;;;;;;;5054157;28;20561;-85
2022/04/16 13:25:01;;;;;;;0.85;0.85;;;;;;;;;;5055095;28;20226;-84
2022/04/16 13:27:28;;;;;;;0.57;0.57;;;;;;;;;;5055065;28;20206;-84
2022/04/16 13:29:56;;;;;;;1.15;0.70;;;;;;;;;;5054347;28;20598;-84
2022/04/16 13:32:23;;;;;;;0.73;0.57;;;;;;;;;;5055128;28;20490;-84
2022/04/16 13:34:50;;;;;;;0.80;0.80;;;;;;;;;;5055427;28;20233;-85
2022/04/16 13:37:17;;;;;;;1.92;1.10;;;;;;;;;;5055017;28;20222;-85
2022/04/16 13:42:29;;;;;;;1.45;1.35;;;;;;;;;;5055691;28;20265;-85
2022/04/16 13:44:58;;;;;;;0.82;0.80;;;;;;;;;;5074797;28;20256;-86
2022/04/16 13:47:26;;;;;;;0.57;0.57;;;;;;;;;;5075453;28;20741;-85
2022/04/16 13:49:53;;;;;;;0.90;0.60;;;;;;;;;;5072299;28;20236;-83
2022/04/16 13:52:20;;;;;;;2.20;0.90;;;;;;;;;;5056561;28;20202;-85
2022/04/16 13:54:47;;;;;;;0.80;0.80;;;;;;;;;;5055225;28;20238;-86
2022/04/16 13:57:14;;;;;;;1.13;0.90;;;;;;;;;;5054641;28;20241;-85
2022/04/16 13:59:41;;;;;;;0.75;0.75;;;;;;;;;;5055753;28;20237;-83
2022/04/16 14:02:09;;;;;;;2.75;1.00;;;;;;;;;;5057485;28;20216;-82
2022/04/16 14:07:23;;;;;;;0.68;0.68;;;;;;;;;;5023378;28;20243;-83
2022/04/16 14:09:50;;;;;;;1.02;0.85;;;;;;;;;;5058225;28;20240;-81
2022/04/16 14:12:18;;;;;;;2.95;0.77;;;;;;;;;;5057579;28;20206;-83
2022/04/16 14:14:45;;;;;;;0.95;0.85;;;;;;;;;;5056854;28;20237;-82
2022/04/16 14:17:13;;;;;;;1.05;0.43;;;;;;;;;;5056047;28;20232;-83
2022/04/16 14:19:42;;;;;;;0.70;0.70;;;;;;;;;;5055741;28;20596;-84
2022/04/16 14:22:09;;;;;;;3.53;1.17;;;;;;;;;;5054401;28;20206;-85
2022/04/16 14:24:36;;;;;;;1.30;0.70;;;;;;;;;;5053847;28;20210;-86
2022/04/16 14:27:05;;;;;;;2.55;0.90;;;;;;;;;;5054086;28;20677;-86
2022/04/16 14:29:32;;;;;;;0.82;0.82;;;;;;;;;;5053772;28;20316;-86
2022/04/16 14:31:59;;;;;;;1.15;0.85;;;;;;;;;;5054440;28;20213;-85
2022/04/16 14:34:28;;;;;;;1.13;1.00;;;;;;;;;;5053993;28;20213;-85
2022/04/16 14:36:57;;;;;;;0.63;0.47;;;;;;;;;;5054361;28;20702;-86
2022/04/16 14:39:24;;;;;;;0.60;0.60;;;;;;;;;;5053892;28;20276;-86
2022/04/16 14:41:51;;;;;;;0.88;0.70;;;;;;;;;;5054710;28;20206;-85
2022/04/16 14:44:18;;;;;;;1.00;0.65;;;;;;;;;;5054910;28;20210;-85
2022/04/16 14:46:46;;;;;;;3.92;1.63;;;;;;;;;;5053682;28;20226;-85
2022/04/16 14:49:15;;;;;;;3.78;2.03;;;;;;;;;;5054108;28;20238;-85
2022/04/16 14:51:44;;;;;;;0.65;0.60;;;;;;;;;;5053426;28;20238;-86
2022/04/16 14:54:12;;;;;;;1.13;0.65;;;;;;;;;;5054080;28;20217;-86
2022/04/16 14:56:39;;;;;;;0.50;0.50;;;;;;;;;;5053209;28;20230;-86
2022/04/16 14:59:07;;;;;;;2.05;0.65;;;;;;;;;;5054840;28;20229;-85
2022/04/16 15:01:34;;;;;;;0.70;0.70;;;;;;;;;;5054440;28;20629;-84
2022/04/16 15:04:01;;;;;;;0.80;0.80;;;;;;;;;;5053102;28;20206;-84
2022/04/16 15:06:28;;;;;;;1.05;0.70;;;;;;;;;;5052968;28;20230;-85
2022/04/16 15:08:56;;;;;;;0.60;0.60;;;;;;;;;;5057332;28;20317;-85
2022/04/16 15:11:23;;;;;;;1.08;0.80;;;;;;;;;;5052809;28;20230;-86
2022/04/16 15:13:50;;;;;;;1.25;0.80;;;;;;;;;;5053314;28;20243;-85
2022/04/16 15:16:17;;;;;;;1.00;0.98;;;;;;;;;;5052435;28;20238;-85
2022/04/16 15:18:44;;;;;;;1.15;1.00;;;;;;;;;;5053162;28;20728;-85